sensor_id;sensor_type;location;lat;lon;timestamp;P1;durP1;ratioP1;P2;durP2;ratioP2
69917;SDS011;57203;42.672;23.334;2023-06-26T00:00:01;26.6;;;18.9;;
69917;SDS011;57203;42.672;23.334;2023-06-26T00:01:02;28.9;;;19.5;;
69917;SDS011;57203;42.672;23.334;2023-06-26T00:02:02;28.9;;;18.2;;
69917;SDS011;57203;42.672;23.334;2023-06-26T00:03:02;24.7;;;17.7;;
69917;SDS011;57203;42.672;23.334;2023-06-26T00:04:02;24.7;;;18.0;;
69917;SDS011;57203;42.672;23.334;2023-06-26T00:05:02;25.5;;;18.6;;
69917;SDS011;57203;42.672;23.334;2023-06-26T00:06:03;26.6;;;17.7;;
69917;SDS011;57203;42.672;23.334;2023-06-26T00:07:03;27.1;;;18.4;;
69917;SDS011;57203;42.672;23.334;2023-06-26T00:08:03;24.3;;;17.9;;
69917;SDS011;57203;42.672;23.334;2023-06-26T00:09:03;24.6;;;18.2;;
69917;SDS011;57203;42.672;23.334;2023-06-26T00:10:04;24.6;;;16.8;;
69917;SDS011;57203;42.672;23.334;2023-06-26T00:11:04;28.8;;;18.3;;
69917;SDS011;57203;42.672;23.334;2023-06-26T00:12:04;28.8;;;17.2;;
69917;SDS011;57203;42.672;23.334;2023-06-26T00:13:04;24.1;;;17.0;;
69917;SDS011;57203;42.672;23.334;2023-06-26T00:14:04;24.8;;;17.3;;
69917;SDS011;57203;42.672;23.334;2023-06-26T00:15:05;24.8;;;17.6;;
69917;SDS011;57203;42.672;23.334;2023-06-26T00:16:05;27.4;;;17.4;;
69917;SDS011;57203;42.672;23.334;2023-06-26T00:17:05;23.4;;;17.2;;
69917;SDS011;57203;42.672;23.334;2023-06-26T00:18:05;23.4;;;18.0;;
69917;SDS011;57203;42.672;23.334;2023-06-26T00:19:06;23.0;;;18.2;;
69917;SDS011;57203;42.672;23.334;2023-06-26T00:20:06;24.2;;;17.5;;
69917;SDS011;57203;42.672;23.334;2023-06-26T00:21:06;24.9;;;17.3;;
69917;SDS011;57203;42.672;23.334;2023-06-26T00:22:06;24.9;;;17.7;;
69917;SDS011;57203;42.672;23.334;2023-06-26T00:23:06;26.5;;;16.6;;
69917;SDS011;57203;42.672;23.334;2023-06-26T00:25:07;23.3;;;16.3;;
69917;SDS011;57203;42.672;23.334;2023-06-26T00:26:07;22.0;;;16.5;;
69917;SDS011;57203;42.672;23.334;2023-06-26T00:27:07;22.0;;;16.0;;
69917;SDS011;57203;42.672;23.334;2023-06-26T00:28:08;22.4;;;16.5;;
69917;SDS011;57203;42.672;23.334;2023-06-26T00:29:08;21.3;;;15.9;;
69917;SDS011;57203;42.672;23.334;2023-06-26T00:30:08;21.3;;;17.3;;
69917;SDS011;57203;42.672;23.334;2023-06-26T00:31:09;25.8;;;16.7;;
69917;SDS011;57203;42.672;23.334;2023-06-26T00:32:09;23.2;;;15.7;;
69917;SDS011;57203;42.672;23.334;2023-06-26T00:33:09;22.2;;;16.5;;
69917;SDS011;57203;42.672;23.334;2023-06-26T00:34:09;24.5;;;16.6;;
69917;SDS011;57203;42.672;23.334;2023-06-26T00:35:09;24.5;;;16.2;;
69917;SDS011;57203;42.672;23.334;2023-06-26T00:36:09;25.7;;;16.4;;
69917;SDS011;57203;42.672;23.334;2023-06-26T00:37:10;25.7;;;15.6;;
69917;SDS011;57203;42.672;23.334;2023-06-26T00:38:10;21.5;;;16.3;;
69917;SDS011;57203;42.672;23.334;2023-06-26T00:39:10;22.0;;;15.6;;
69917;SDS011;57203;42.672;23.334;2023-06-26T00:40:12;20.6;;;15.5;;
69917;SDS011;57203;42.672;23.334;2023-06-26T00:41:11;22.9;;;16.1;;
69917;SDS011;57203;42.672;23.334;2023-06-26T00:42:11;21.9;;;16.0;;
69917;SDS011;57203;42.672;23.334;2023-06-26T00:43:11;24.8;;;15.7;;
69917;SDS011;57203;42.672;23.334;2023-06-26T00:44:11;24.8;;;16.2;;
69917;SDS011;57203;42.672;23.334;2023-06-26T00:45:12;22.2;;;14.4;;
69917;SDS011;57203;42.672;23.334;2023-06-26T00:46:12;19.1;;;14.6;;
69917;SDS011;57203;42.672;23.334;2023-06-26T00:47:14;18.9;;;15.6;;
69917;SDS011;57203;42.672;23.334;2023-06-26T00:48:12;22.8;;;14.7;;
69917;SDS011;57203;42.672;23.334;2023-06-26T00:49:12;20.7;;;15.3;;
69917;SDS011;57203;42.672;23.334;2023-06-26T00:50:13;20.1;;;14.2;;
69917;SDS011;57203;42.672;23.334;2023-06-26T00:51:13;18.4;;;13.9;;
69917;SDS011;57203;42.672;23.334;2023-06-26T00:52:13;18.4;;;15.0;;
69917;SDS011;57203;42.672;23.334;2023-06-26T00:53:13;21.4;;;15.1;;
69917;SDS011;57203;42.672;23.334;2023-06-26T00:54:14;20.4;;;14.5;;
69917;SDS011;57203;42.672;23.334;2023-06-26T00:55:14;20.4;;;14.7;;
69917;SDS011;57203;42.672;23.334;2023-06-26T00:56:14;19.9;;;14.4;;
69917;SDS011;57203;42.672;23.334;2023-06-26T00:57:14;19.9;;;14.6;;
69917;SDS011;57203;42.672;23.334;2023-06-26T00:58:15;18.8;;;15.2;;
69917;SDS011;57203;42.672;23.334;2023-06-26T00:59:15;19.3;;;14.4;;
69917;SDS011;57203;42.672;23.334;2023-06-26T01:00:15;19.8;;;13.5;;
69917;SDS011;57203;42.672;23.334;2023-06-26T01:01:15;17.6;;;15.1;;
69917;SDS011;57203;42.672;23.334;2023-06-26T01:02:16;21.7;;;14.8;;
69917;SDS011;57203;42.672;23.334;2023-06-26T01:03:16;18.7;;;13.9;;
69917;SDS011;57203;42.672;23.334;2023-06-26T01:04:16;19.5;;;14.3;;
69917;SDS011;57203;42.672;23.334;2023-06-26T01:05:16;18.5;;;14.2;;
69917;SDS011;57203;42.672;23.334;2023-06-26T01:06:17;20.1;;;14.9;;
69917;SDS011;57203;42.672;23.334;2023-06-26T01:07:17;19.8;;;14.2;;
69917;SDS011;57203;42.672;23.334;2023-06-26T01:08:17;19.8;;;14.1;;
69917;SDS011;57203;42.672;23.334;2023-06-26T01:09:17;19.9;;;13.8;;
69917;SDS011;57203;42.672;23.334;2023-06-26T01:10:17;17.7;;;14.5;;
69917;SDS011;57203;42.672;23.334;2023-06-26T01:11:18;20.1;;;14.1;;
69917;SDS011;57203;42.672;23.334;2023-06-26T01:12:18;17.9;;;13.6;;
69917;SDS011;57203;42.672;23.334;2023-06-26T01:13:18;17.9;;;14.5;;
69917;SDS011;57203;42.672;23.334;2023-06-26T01:14:18;19.7;;;14.7;;
69917;SDS011;57203;42.672;23.334;2023-06-26T01:15:18;19.7;;;14.0;;
69917;SDS011;57203;42.672;23.334;2023-06-26T01:16:19;17.5;;;14.3;;
69917;SDS011;57203;42.672;23.334;2023-06-26T01:17:19;19.7;;;14.2;;
69917;SDS011;57203;42.672;23.334;2023-06-26T01:18:19;19.0;;;14.1;;
69917;SDS011;57203;42.672;23.334;2023-06-26T01:19:25;18.4;;;14.0;;
69917;SDS011;57203;42.672;23.334;2023-06-26T01:20:20;17.7;;;13.7;;
69917;SDS011;57203;42.672;23.334;2023-06-26T01:21:20;17.7;;;14.3;;
69917;SDS011;57203;42.672;23.334;2023-06-26T01:22:30;17.9;;;14.7;;
69917;SDS011;57203;42.672;23.334;2023-06-26T01:23:22;17.9;;;14.3;;
69917;SDS011;57203;42.672;23.334;2023-06-26T01:24:21;17.9;;;13.8;;
69917;SDS011;57203;42.672;23.334;2023-06-26T01:25:22;18.7;;;14.3;;
69917;SDS011;57203;42.672;23.334;2023-06-26T01:26:21;19.8;;;14.8;;
69917;SDS011;57203;42.672;23.334;2023-06-26T01:27:21;19.8;;;14.3;;
69917;SDS011;57203;42.672;23.334;2023-06-26T01:29:22;18.5;;;14.4;;
69917;SDS011;57203;42.672;23.334;2023-06-26T01:30:22;19.2;;;14.8;;
69917;SDS011;57203;42.672;23.334;2023-06-26T01:31:22;19.0;;;14.1;;
69917;SDS011;57203;42.672;23.334;2023-06-26T01:32:23;19.0;;;14.4;;
69917;SDS011;57203;42.672;23.334;2023-06-26T01:33:23;18.5;;;15.2;;
69917;SDS011;57203;42.672;23.334;2023-06-26T01:34:23;19.2;;;14.4;;
69917;SDS011;57203;42.672;23.334;2023-06-26T01:35:23;19.2;;;14.3;;
69917;SDS011;57203;42.672;23.334;2023-06-26T01:36:24;20.5;;;14.6;;
69917;SDS011;57203;42.672;23.334;2023-06-26T01:37:24;20.5;;;13.9;;
69917;SDS011;57203;42.672;23.334;2023-06-26T01:38:24;18.7;;;14.4;;
69917;SDS011;57203;42.672;23.334;2023-06-26T01:39:24;19.8;;;14.5;;
69917;SDS011;57203;42.672;23.334;2023-06-26T01:40:24;19.8;;;14.4;;
69917;SDS011;57203;42.672;23.334;2023-06-26T01:41:25;18.0;;;14.1;;
69917;SDS011;57203;42.672;23.334;2023-06-26T01:42:25;18.7;;;14.8;;
69917;SDS011;57203;42.672;23.334;2023-06-26T01:43:27;20.9;;;14.4;;
69917;SDS011;57203;42.672;23.334;2023-06-26T01:44:26;20.1;;;15.1;;
69917;SDS011;57203;42.672;23.334;2023-06-26T01:45:27;20.1;;;14.8;;
69917;SDS011;57203;42.672;23.334;2023-06-26T01:46:27;17.7;;;14.3;;
69917;SDS011;57203;42.672;23.334;2023-06-26T01:47:26;20.0;;;15.1;;
69917;SDS011;57203;42.672;23.334;2023-06-26T01:48:28;16.9;;;14.2;;
69917;SDS011;57203;42.672;23.334;2023-06-26T01:49:31;17.4;;;13.5;;
69917;SDS011;57203;42.672;23.334;2023-06-26T01:50:28;17.4;;;14.1;;
69917;SDS011;57203;42.672;23.334;2023-06-26T01:51:31;18.7;;;14.0;;
69917;SDS011;57203;42.672;23.334;2023-06-26T01:52:28;18.7;;;13.9;;
69917;SDS011;57203;42.672;23.334;2023-06-26T01:53:29;18.6;;;14.2;;
69917;SDS011;57203;42.672;23.334;2023-06-26T01:54:29;18.8;;;14.0;;
69917;SDS011;57203;42.672;23.334;2023-06-26T01:55:30;17.7;;;15.3;;
69917;SDS011;57203;42.672;23.334;2023-06-26T01:56:28;19.8;;;14.6;;
69917;SDS011;57203;42.672;23.334;2023-06-26T01:57:29;19.6;;;14.1;;
69917;SDS011;57203;42.672;23.334;2023-06-26T01:58:29;17.8;;;14.9;;
69917;SDS011;57203;42.672;23.334;2023-06-26T01:59:29;19.9;;;14.0;;
69917;SDS011;57203;42.672;23.334;2023-06-26T02:00:29;18.3;;;14.8;;
69917;SDS011;57203;42.672;23.334;2023-06-26T02:01:30;18.2;;;14.4;;
69917;SDS011;57203;42.672;23.334;2023-06-26T02:02:30;18.6;;;14.6;;
69917;SDS011;57203;42.672;23.334;2023-06-26T02:03:30;18.4;;;15.3;;
69917;SDS011;57203;42.672;23.334;2023-06-26T02:04:30;19.5;;;14.7;;
69917;SDS011;57203;42.672;23.334;2023-06-26T02:05:31;19.5;;;14.8;;
69917;SDS011;57203;42.672;23.334;2023-06-26T02:06:31;18.6;;;15.1;;
69917;SDS011;57203;42.672;23.334;2023-06-26T02:07:31;18.6;;;14.8;;
69917;SDS011;57203;42.672;23.334;2023-06-26T02:08:31;20.2;;;14.7;;
69917;SDS011;57203;42.672;23.334;2023-06-26T02:09:31;19.0;;;15.0;;
69917;SDS011;57203;42.672;23.334;2023-06-26T02:10:32;18.6;;;13.9;;
69917;SDS011;57203;42.672;23.334;2023-06-26T02:11:32;18.6;;;14.8;;
69917;SDS011;57203;42.672;23.334;2023-06-26T02:12:32;20.4;;;15.2;;
69917;SDS011;57203;42.672;23.334;2023-06-26T02:13:32;19.6;;;14.6;;
69917;SDS011;57203;42.672;23.334;2023-06-26T02:14:33;18.6;;;15.5;;
69917;SDS011;57203;42.672;23.334;2023-06-26T02:15:33;19.6;;;15.2;;
69917;SDS011;57203;42.672;23.334;2023-06-26T02:16:33;19.6;;;14.8;;
69917;SDS011;57203;42.672;23.334;2023-06-26T02:17:34;19.8;;;16.1;;
69917;SDS011;57203;42.672;23.334;2023-06-26T02:18:34;19.8;;;14.0;;
69917;SDS011;57203;42.672;23.334;2023-06-26T02:19:34;19.6;;;14.9;;
69917;SDS011;57203;42.672;23.334;2023-06-26T02:20:34;18.8;;;15.5;;
69917;SDS011;57203;42.672;23.334;2023-06-26T02:21:34;20.6;;;15.6;;
69917;SDS011;57203;42.672;23.334;2023-06-26T02:22:35;20.9;;;16.3;;
69917;SDS011;57203;42.672;23.334;2023-06-26T02:23:35;20.9;;;16.1;;
69917;SDS011;57203;42.672;23.334;2023-06-26T02:24:35;21.6;;;15.9;;
69917;SDS011;57203;42.672;23.334;2023-06-26T02:25:35;20.4;;;16.2;;
69917;SDS011;57203;42.672;23.334;2023-06-26T02:26:36;20.4;;;15.1;;
69917;SDS011;57203;42.672;23.334;2023-06-26T02:27:36;19.3;;;15.7;;
69917;SDS011;57203;42.672;23.334;2023-06-26T02:28:36;20.7;;;14.9;;
69917;SDS011;57203;42.672;23.334;2023-06-26T02:29:36;20.7;;;16.0;;
69917;SDS011;57203;42.672;23.334;2023-06-26T02:30:37;22.0;;;17.4;;
69917;SDS011;57203;42.672;23.334;2023-06-26T02:31:37;22.0;;;16.1;;
69917;SDS011;57203;42.672;23.334;2023-06-26T02:32:37;20.4;;;16.7;;
69917;SDS011;57203;42.672;23.334;2023-06-26T02:33:37;22.5;;;15.8;;
69917;SDS011;57203;42.672;23.334;2023-06-26T02:34:37;22.5;;;16.6;;
69917;SDS011;57203;42.672;23.334;2023-06-26T02:35:38;21.4;;;17.3;;
69917;SDS011;57203;42.672;23.334;2023-06-26T02:36:38;21.4;;;16.2;;
69917;SDS011;57203;42.672;23.334;2023-06-26T02:37:38;21.0;;;16.7;;
69917;SDS011;57203;42.672;23.334;2023-06-26T02:38:38;21.1;;;17.4;;
69917;SDS011;57203;42.672;23.334;2023-06-26T02:39:39;21.5;;;16.7;;
69917;SDS011;57203;42.672;23.334;2023-06-26T02:40:39;21.5;;;17.8;;
69917;SDS011;57203;42.672;23.334;2023-06-26T02:41:39;21.1;;;17.2;;
69917;SDS011;57203;42.672;23.334;2023-06-26T02:42:39;21.1;;;18.5;;
69917;SDS011;57203;42.672;23.334;2023-06-26T02:43:40;24.3;;;17.7;;
69917;SDS011;57203;42.672;23.334;2023-06-26T02:44:40;23.4;;;17.4;;
69917;SDS011;57203;42.672;23.334;2023-06-26T02:45:40;22.3;;;18.4;;
69917;SDS011;57203;42.672;23.334;2023-06-26T02:46:40;24.0;;;17.5;;
69917;SDS011;57203;42.672;23.334;2023-06-26T02:47:40;23.3;;;18.5;;
69917;SDS011;57203;42.672;23.334;2023-06-26T02:48:41;23.3;;;18.3;;
69917;SDS011;57203;42.672;23.334;2023-06-26T02:49:41;23.3;;;18.1;;
69917;SDS011;57203;42.672;23.334;2023-06-26T02:50:41;23.0;;;19.7;;
69917;SDS011;57203;42.672;23.334;2023-06-26T02:51:41;26.0;;;17.4;;
69917;SDS011;57203;42.672;23.334;2023-06-26T02:52:42;23.8;;;17.5;;
69917;SDS011;57203;42.672;23.334;2023-06-26T02:53:42;22.0;;;18.7;;
69917;SDS011;57203;42.672;23.334;2023-06-26T02:54:42;25.5;;;18.8;;
69917;SDS011;57203;42.672;23.334;2023-06-26T02:55:42;25.5;;;19.1;;
69917;SDS011;57203;42.672;23.334;2023-06-26T02:56:43;23.8;;;19.0;;
69917;SDS011;57203;42.672;23.334;2023-06-26T02:57:43;23.7;;;18.4;;
69917;SDS011;57203;42.672;23.334;2023-06-26T02:58:43;23.9;;;18.9;;
69917;SDS011;57203;42.672;23.334;2023-06-26T02:59:43;22.9;;;19.1;;
69917;SDS011;57203;42.672;23.334;2023-06-26T03:00:44;23.5;;;19.0;;
69917;SDS011;57203;42.672;23.334;2023-06-26T03:01:44;23.5;;;19.6;;
69917;SDS011;57203;42.672;23.334;2023-06-26T03:02:44;26.7;;;18.8;;
69917;SDS011;57203;42.672;23.334;2023-06-26T03:03:44;24.7;;;19.3;;
69917;SDS011;57203;42.672;23.334;2023-06-26T03:04:44;24.4;;;19.8;;
69917;SDS011;57203;42.672;23.334;2023-06-26T03:05:45;24.0;;;18.9;;
69917;SDS011;57203;42.672;23.334;2023-06-26T03:06:45;24.0;;;20.0;;
69917;SDS011;57203;42.672;23.334;2023-06-26T03:07:45;25.3;;;19.9;;
69917;SDS011;57203;42.672;23.334;2023-06-26T03:08:45;25.8;;;19.4;;
69917;SDS011;57203;42.672;23.334;2023-06-26T03:10:46;25.4;;;20.6;;
69917;SDS011;57203;42.672;23.334;2023-06-26T03:11:46;25.4;;;21.5;;
69917;SDS011;57203;42.672;23.334;2023-06-26T03:12:46;27.4;;;21.1;;
69917;SDS011;57203;42.672;23.334;2023-06-26T03:13:46;27.4;;;20.3;;
69917;SDS011;57203;42.672;23.334;2023-06-26T03:14:47;27.7;;;20.2;;
69917;SDS011;57203;42.672;23.334;2023-06-26T03:15:47;27.7;;;20.8;;
69917;SDS011;57203;42.672;23.334;2023-06-26T03:16:47;26.1;;;19.3;;
69917;SDS011;57203;42.672;23.334;2023-06-26T03:17:47;24.6;;;19.2;;
69917;SDS011;57203;42.672;23.334;2023-06-26T03:18:48;24.6;;;19.8;;
69917;SDS011;57203;42.672;23.334;2023-06-26T03:19:48;27.6;;;21.3;;
69917;SDS011;57203;42.672;23.334;2023-06-26T03:20:48;27.6;;;20.6;;
69917;SDS011;57203;42.672;23.334;2023-06-26T03:21:48;26.6;;;21.0;;
69917;SDS011;57203;42.672;23.334;2023-06-26T03:22:48;26.5;;;20.5;;
69917;SDS011;57203;42.672;23.334;2023-06-26T03:23:49;24.8;;;20.3;;
69917;SDS011;57203;42.672;23.334;2023-06-26T03:24:49;27.6;;;20.4;;
69917;SDS011;57203;42.672;23.334;2023-06-26T03:26:49;26.5;;;20.1;;
69917;SDS011;57203;42.672;23.334;2023-06-26T03:27:50;24.9;;;20.0;;
69917;SDS011;57203;42.672;23.334;2023-06-26T03:28:50;24.9;;;20.8;;
69917;SDS011;57203;42.672;23.334;2023-06-26T03:29:51;27.4;;;20.7;;
69917;SDS011;57203;42.672;23.334;2023-06-26T03:30:51;26.6;;;21.3;;
69917;SDS011;57203;42.672;23.334;2023-06-26T03:31:51;26.1;;;20.0;;
69917;SDS011;57203;42.672;23.334;2023-06-26T03:32:51;26.5;;;20.3;;
69917;SDS011;57203;42.672;23.334;2023-06-26T03:33:51;25.5;;;20.7;;
69917;SDS011;57203;42.672;23.334;2023-06-26T03:34:51;25.8;;;20.5;;
69917;SDS011;57203;42.672;23.334;2023-06-26T03:35:52;25.5;;;20.8;;
69917;SDS011;57203;42.672;23.334;2023-06-26T03:36:52;25.5;;;22.1;;
69917;SDS011;57203;42.672;23.334;2023-06-26T03:37:52;29.2;;;21.2;;
69917;SDS011;57203;42.672;23.334;2023-06-26T03:38:52;29.1;;;21.0;;
69917;SDS011;57203;42.672;23.334;2023-06-26T03:39:52;29.1;;;21.4;;
69917;SDS011;57203;42.672;23.334;2023-06-26T03:40:53;26.1;;;20.8;;
69917;SDS011;57203;42.672;23.334;2023-06-26T03:41:53;27.9;;;20.7;;
69917;SDS011;57203;42.672;23.334;2023-06-26T03:42:53;27.2;;;21.0;;
69917;SDS011;57203;42.672;23.334;2023-06-26T03:43:53;27.2;;;20.7;;
69917;SDS011;57203;42.672;23.334;2023-06-26T03:45:54;26.3;;;21.1;;
69917;SDS011;57203;42.672;23.334;2023-06-26T03:46:54;26.1;;;21.7;;
69917;SDS011;57203;42.672;23.334;2023-06-26T03:47:54;28.1;;;21.1;;
69917;SDS011;57203;42.672;23.334;2023-06-26T03:48:54;26.5;;;20.1;;
69917;SDS011;57203;42.672;23.334;2023-06-26T03:49:55;26.3;;;21.1;;
69917;SDS011;57203;42.672;23.334;2023-06-26T03:50:55;26.3;;;20.8;;
69917;SDS011;57203;42.672;23.334;2023-06-26T03:51:55;27.2;;;21.3;;
69917;SDS011;57203;42.672;23.334;2023-06-26T03:52:55;29.2;;;20.8;;
69917;SDS011;57203;42.672;23.334;2023-06-26T03:53:56;26.3;;;20.5;;
69917;SDS011;57203;42.672;23.334;2023-06-26T03:54:56;26.3;;;21.1;;
69917;SDS011;57203;42.672;23.334;2023-06-26T03:56:56;27.0;;;20.1;;
69917;SDS011;57203;42.672;23.334;2023-06-26T03:57:57;24.2;;;21.8;;
69917;SDS011;57203;42.672;23.334;2023-06-26T03:58:57;26.7;;;20.8;;
69917;SDS011;57203;42.672;23.334;2023-06-26T03:59:57;25.2;;;20.7;;
69917;SDS011;57203;42.672;23.334;2023-06-26T04:00:57;26.9;;;21.2;;
69917;SDS011;57203;42.672;23.334;2023-06-26T04:01:57;25.9;;;20.5;;
69917;SDS011;57203;42.672;23.334;2023-06-26T04:02:58;26.7;;;20.7;;
69917;SDS011;57203;42.672;23.334;2023-06-26T04:04:00;26.7;;;21.5;;
69917;SDS011;57203;42.672;23.334;2023-06-26T04:04:58;27.6;;;21.0;;
69917;SDS011;57203;42.672;23.334;2023-06-26T04:05:58;28.1;;;21.1;;
69917;SDS011;57203;42.672;23.334;2023-06-26T04:06:59;28.1;;;20.4;;
69917;SDS011;57203;42.672;23.334;2023-06-26T04:07:59;25.9;;;19.2;;
69917;SDS011;57203;42.672;23.334;2023-06-26T04:08:59;24.4;;;19.8;;
69917;SDS011;57203;42.672;23.334;2023-06-26T04:09:59;26.7;;;19.6;;
69917;SDS011;57203;42.672;23.334;2023-06-26T04:10:59;25.2;;;19.1;;
69917;SDS011;57203;42.672;23.334;2023-06-26T04:12:00;25.2;;;19.0;;
69917;SDS011;57203;42.672;23.334;2023-06-26T04:13:00;24.2;;;18.7;;
69917;SDS011;57203;42.672;23.334;2023-06-26T04:14:00;24.3;;;19.4;;
69917;SDS011;57203;42.672;23.334;2023-06-26T04:15:00;25.7;;;18.3;;
69917;SDS011;57203;42.672;23.334;2023-06-26T04:16:01;26.8;;;18.1;;
69917;SDS011;57203;42.672;23.334;2023-06-26T04:17:01;22.8;;;18.6;;
69917;SDS011;57203;42.672;23.334;2023-06-26T04:18:01;23.3;;;18.1;;
69917;SDS011;57203;42.672;23.334;2023-06-26T04:20:02;24.7;;;17.7;;
69917;SDS011;57203;42.672;23.334;2023-06-26T04:21:03;22.7;;;16.6;;
69917;SDS011;57203;42.672;23.334;2023-06-26T04:22:02;22.3;;;18.5;;
69917;SDS011;57203;42.672;23.334;2023-06-26T04:23:02;22.5;;;17.4;;
69917;SDS011;57203;42.672;23.334;2023-06-26T04:24:03;22.5;;;17.2;;
69917;SDS011;57203;42.672;23.334;2023-06-26T04:25:03;22.5;;;17.5;;
69917;SDS011;57203;42.672;23.334;2023-06-26T04:26:03;22.4;;;17.4;;
69917;SDS011;57203;42.672;23.334;2023-06-26T04:27:03;22.8;;;17.6;;
69917;SDS011;57203;42.672;23.334;2023-06-26T04:28:03;21.9;;;17.4;;
69917;SDS011;57203;42.672;23.334;2023-06-26T04:29:04;22.6;;;18.1;;
69917;SDS011;57203;42.672;23.334;2023-06-26T04:30:04;22.6;;;17.0;;
69917;SDS011;57203;42.672;23.334;2023-06-26T04:31:04;24.4;;;17.5;;
69917;SDS011;57203;42.672;23.334;2023-06-26T04:32:05;20.9;;;17.2;;
69917;SDS011;57203;42.672;23.334;2023-06-26T04:33:05;23.5;;;17.4;;
69917;SDS011;57203;42.672;23.334;2023-06-26T04:34:05;23.5;;;17.8;;
69917;SDS011;57203;42.672;23.334;2023-06-26T04:35:05;20.9;;;17.2;;
69917;SDS011;57203;42.672;23.334;2023-06-26T04:36:05;22.7;;;17.9;;
69917;SDS011;57203;42.672;23.334;2023-06-26T04:37:05;22.9;;;17.2;;
69917;SDS011;57203;42.672;23.334;2023-06-26T04:38:06;22.0;;;17.0;;
69917;SDS011;57203;42.672;23.334;2023-06-26T04:39:06;22.9;;;17.7;;
69917;SDS011;57203;42.672;23.334;2023-06-26T04:40:07;21.4;;;17.4;;
69917;SDS011;57203;42.672;23.334;2023-06-26T04:42:07;22.9;;;17.2;;
69917;SDS011;57203;42.672;23.334;2023-06-26T04:43:07;21.5;;;17.1;;
69917;SDS011;57203;42.672;23.334;2023-06-26T04:44:07;20.1;;;16.7;;
69917;SDS011;57203;42.672;23.334;2023-06-26T04:45:07;20.8;;;16.4;;
69917;SDS011;57203;42.672;23.334;2023-06-26T04:46:08;23.7;;;17.7;;
69917;SDS011;57203;42.672;23.334;2023-06-26T04:47:08;23.7;;;18.1;;
69917;SDS011;57203;42.672;23.334;2023-06-26T04:48:08;22.0;;;17.5;;
69917;SDS011;57203;42.672;23.334;2023-06-26T04:49:08;22.1;;;16.8;;
69917;SDS011;57203;42.672;23.334;2023-06-26T04:50:08;24.6;;;17.8;;
69917;SDS011;57203;42.672;23.334;2023-06-26T04:51:09;21.4;;;17.3;;
69917;SDS011;57203;42.672;23.334;2023-06-26T04:52:09;20.9;;;16.4;;
69917;SDS011;57203;42.672;23.334;2023-06-26T04:53:09;21.3;;;16.1;;
69917;SDS011;57203;42.672;23.334;2023-06-26T04:54:10;19.0;;;16.9;;
69917;SDS011;57203;42.672;23.334;2023-06-26T04:55:10;22.1;;;17.0;;
69917;SDS011;57203;42.672;23.334;2023-06-26T04:56:10;19.5;;;16.6;;
69917;SDS011;57203;42.672;23.334;2023-06-26T04:57:10;21.4;;;17.0;;
69917;SDS011;57203;42.672;23.334;2023-06-26T04:58:10;21.7;;;17.2;;
69917;SDS011;57203;42.672;23.334;2023-06-26T04:59:11;21.1;;;16.7;;
69917;SDS011;57203;42.672;23.334;2023-06-26T05:00:11;21.1;;;19.0;;
69917;SDS011;57203;42.672;23.334;2023-06-26T05:01:11;25.1;;;17.3;;
69917;SDS011;57203;42.672;23.334;2023-06-26T05:02:11;21.5;;;18.4;;
69917;SDS011;57203;42.672;23.334;2023-06-26T05:03:12;23.4;;;18.1;;
69917;SDS011;57203;42.672;23.334;2023-06-26T05:04:12;23.4;;;17.5;;
69917;SDS011;57203;42.672;23.334;2023-06-26T05:05:12;21.9;;;17.6;;
69917;SDS011;57203;42.672;23.334;2023-06-26T05:06:12;21.9;;;17.1;;
69917;SDS011;57203;42.672;23.334;2023-06-26T05:07:13;20.9;;;16.4;;
69917;SDS011;57203;42.672;23.334;2023-06-26T05:08:13;21.7;;;16.6;;
69917;SDS011;57203;42.672;23.334;2023-06-26T05:09:13;21.4;;;16.4;;
69917;SDS011;57203;42.672;23.334;2023-06-26T05:10:13;21.5;;;16.9;;
69917;SDS011;57203;42.672;23.334;2023-06-26T05:11:13;23.3;;;16.8;;
69917;SDS011;57203;42.672;23.334;2023-06-26T05:12:14;23.3;;;16.2;;
69917;SDS011;57203;42.672;23.334;2023-06-26T05:13:14;19.4;;;17.4;;
69917;SDS011;57203;42.672;23.334;2023-06-26T05:14:14;20.2;;;16.2;;
69917;SDS011;57203;42.672;23.334;2023-06-26T05:15:14;22.5;;;16.5;;
69917;SDS011;57203;42.672;23.334;2023-06-26T05:16:15;22.5;;;15.6;;
69917;SDS011;57203;42.672;23.334;2023-06-26T05:17:15;18.7;;;15.8;;
69917;SDS011;57203;42.672;23.334;2023-06-26T05:18:15;18.9;;;16.9;;
69917;SDS011;57203;42.672;23.334;2023-06-26T05:19:15;23.1;;;16.1;;
69917;SDS011;57203;42.672;23.334;2023-06-26T05:20:16;20.4;;;15.8;;
69917;SDS011;57203;42.672;23.334;2023-06-26T05:21:16;20.4;;;16.4;;
69917;SDS011;57203;42.672;23.334;2023-06-26T05:22:16;20.0;;;16.5;;
69917;SDS011;57203;42.672;23.334;2023-06-26T05:23:16;19.7;;;16.6;;
69917;SDS011;57203;42.672;23.334;2023-06-26T05:24:16;20.6;;;16.4;;
69917;SDS011;57203;42.672;23.334;2023-06-26T05:25:17;20.6;;;15.8;;
69917;SDS011;57203;42.672;23.334;2023-06-26T05:26:17;23.3;;;16.5;;
69917;SDS011;57203;42.672;23.334;2023-06-26T05:28:18;21.1;;;15.7;;
69917;SDS011;57203;42.672;23.334;2023-06-26T05:29:18;23.5;;;16.1;;
69917;SDS011;57203;42.672;23.334;2023-06-26T05:30:18;19.0;;;16.0;;
69917;SDS011;57203;42.672;23.334;2023-06-26T05:31:18;21.4;;;16.7;;
69917;SDS011;57203;42.672;23.334;2023-06-26T05:32:18;21.4;;;16.6;;
69917;SDS011;57203;42.672;23.334;2023-06-26T05:33:19;19.8;;;16.0;;
69917;SDS011;57203;42.672;23.334;2023-06-26T05:34:19;19.8;;;15.9;;
69917;SDS011;57203;42.672;23.334;2023-06-26T05:36:19;18.8;;;16.1;;
69917;SDS011;57203;42.672;23.334;2023-06-26T05:38:20;19.3;;;15.7;;
69917;SDS011;57203;42.672;23.334;2023-06-26T05:40:20;18.6;;;14.5;;
69917;SDS011;57203;42.672;23.334;2023-06-26T05:41:21;18.2;;;14.6;;
69917;SDS011;57203;42.672;23.334;2023-06-26T05:42:21;20.2;;;14.9;;
69917;SDS011;57203;42.672;23.334;2023-06-26T05:43:21;18.1;;;14.2;;
69917;SDS011;57203;42.672;23.334;2023-06-26T05:44:21;17.3;;;14.6;;
69917;SDS011;57203;42.672;23.334;2023-06-26T05:45:21;17.4;;;15.2;;
69917;SDS011;57203;42.672;23.334;2023-06-26T05:46:22;18.3;;;14.2;;
69917;SDS011;57203;42.672;23.334;2023-06-26T05:47:22;18.3;;;14.3;;
69917;SDS011;57203;42.672;23.334;2023-06-26T05:48:22;17.8;;;14.7;;
69917;SDS011;57203;42.672;23.334;2023-06-26T05:49:22;15.9;;;13.4;;
69917;SDS011;57203;42.672;23.334;2023-06-26T05:50:23;15.9;;;14.0;;
69917;SDS011;57203;42.672;23.334;2023-06-26T05:51:23;18.2;;;13.4;;
69917;SDS011;57203;42.672;23.334;2023-06-26T05:52:23;17.9;;;15.4;;
69917;SDS011;57203;42.672;23.334;2023-06-26T05:53:24;17.9;;;14.0;;
69917;SDS011;57203;42.672;23.334;2023-06-26T05:54:24;17.1;;;14.2;;
69917;SDS011;57203;42.672;23.334;2023-06-26T05:55:24;16.5;;;13.9;;
69917;SDS011;57203;42.672;23.334;2023-06-26T05:56:24;16.1;;;14.0;;
69917;SDS011;57203;42.672;23.334;2023-06-26T05:57:24;17.4;;;14.1;;
69917;SDS011;57203;42.672;23.334;2023-06-26T05:58:25;17.4;;;14.6;;
69917;SDS011;57203;42.672;23.334;2023-06-26T05:59:25;18.2;;;14.0;;
69917;SDS011;57203;42.672;23.334;2023-06-26T06:00:25;19.7;;;14.7;;
69917;SDS011;57203;42.672;23.334;2023-06-26T06:01:25;19.7;;;13.7;;
69917;SDS011;57203;42.672;23.334;2023-06-26T06:02:25;18.3;;;14.2;;
69917;SDS011;57203;42.672;23.334;2023-06-26T06:03:26;18.7;;;13.6;;
69917;SDS011;57203;42.672;23.334;2023-06-26T06:04:26;16.9;;;14.0;;
69917;SDS011;57203;42.672;23.334;2023-06-26T06:05:26;16.5;;;12.6;;
69917;SDS011;57203;42.672;23.334;2023-06-26T06:06:26;15.9;;;12.5;;
69917;SDS011;57203;42.672;23.334;2023-06-26T06:07:27;18.5;;;13.8;;
69917;SDS011;57203;42.672;23.334;2023-06-26T06:08:27;16.4;;;12.8;;